Time;durP1;ratioP1;P1;durP2;ratioP2;P2;SDS_P1;SDS_P2;PMS_P1;PMS_P2;Temp;Humidity;BMP_temperature;BMP_pressure;BME280_temperature;BME280_humidity;BME280_pressure;Samples;Min_cycle;Max_cycle;Signal;HPM_P1;HPM_P2
2023/08/05 00:00:46;;;;;;;6.93;6.33;;;19.50;99.90;;;;;;10452244;28;20259;-85
2023/08/05 00:05:49;;;;;;;6.80;6.13;;;19.50;99.90;;;;;;10439652;28;20230;-85
2023/08/05 00:10:51;;;;;;;5.40;5.00;;;19.50;99.90;;;;;;10441776;28;20701;-85
2023/08/05 00:15:53;;;;;;;6.03;5.53;;;19.50;99.90;;;;;;10445203;28;20264;-84
2023/08/05 00:20:57;;;;;;;6.77;6.17;;;19.50;99.90;;;;;;10444272;28;20234;-85
2023/08/05 00:25:59;;;;;;;6.80;6.20;;;19.50;99.90;;;;;;10437293;28;20368;-85
2023/08/05 00:31:01;;;;;;;6.03;5.53;;;19.50;99.90;;;;;;10439567;28;20309;-85
2023/08/05 00:36:04;;;;;;;5.60;5.10;;;19.50;99.90;;;;;;10440051;28;20232;-85
2023/08/05 00:41:06;;;;;;;7.27;5.43;;;19.50;99.90;;;;;;10439763;28;20215;-85
2023/08/05 00:46:09;;;;;;;5.87;5.37;;;19.50;99.90;;;;;;10436681;28;20368;-83
2023/08/05 00:51:12;;;;;;;6.00;5.20;;;19.50;99.90;;;;;;10442652;28;20236;-85
2023/08/05 00:56:15;;;;;;;5.27;4.83;;;19.50;99.90;;;;;;10433869;28;20202;-85
2023/08/05 01:01:17;;;;;;;7.23;6.10;;;19.50;99.90;;;;;;10428605;28;20353;-85
2023/08/05 01:06:22;;;;;;;6.27;5.20;;;19.50;99.90;;;;;;10433936;28;20261;-85
2023/08/05 01:11:24;;;;;;;5.20;4.80;;;19.50;99.90;;;;;;10435439;28;20238;-85
2023/08/05 01:16:26;;;;;;;5.60;5.13;;;19.50;99.90;;;;;;10434441;28;20206;-85
2023/08/05 01:21:36;;;;;;;6.20;5.60;;;19.50;99.90;;;;;;10431916;28;20226;-85
2023/08/05 01:26:40;;;;;;;5.70;5.10;;;19.50;99.90;;;;;;10438494;28;20261;-85
2023/08/05 01:31:45;;;;;;;5.97;5.37;;;19.50;99.90;;;;;;10436934;28;20218;-85
2023/08/05 01:36:47;;;;;;;4.70;4.40;;;19.50;99.90;;;;;;10440879;28;20244;-85
2023/08/05 01:41:51;;;;;;;5.37;4.97;;;19.40;99.90;;;;;;10450009;28;20236;-85
2023/08/05 01:46:53;;;;;;;7.37;5.10;;;19.40;99.90;;;;;;10440282;28;20234;-85
2023/08/05 01:51:55;;;;;;;6.17;5.53;;;19.50;99.90;;;;;;10438385;28;20225;-85
2023/08/05 01:56:59;;;;;;;6.33;5.73;;;19.40;99.90;;;;;;10412924;28;20213;-85
2023/08/05 02:02:01;;;;;;;4.83;4.43;;;19.50;99.90;;;;;;10428249;28;20716;-85
2023/08/05 02:07:03;;;;;;;7.07;5.40;;;19.40;99.90;;;;;;10435689;28;20318;-85
2023/08/05 02:12:07;;;;;;;5.63;5.10;;;19.40;99.90;;;;;;10433861;28;20225;-85
2023/08/05 02:17:09;;;;;;;7.77;5.57;;;19.40;99.90;;;;;;10460562;28;20210;-85
2023/08/05 02:22:11;;;;;;;5.47;5.07;;;19.40;99.90;;;;;;10452962;28;21078;-85
2023/08/05 02:27:16;;;;;;;7.60;4.97;;;19.40;99.90;;;;;;10434191;28;20226;-85
2023/08/05 02:32:18;;;;;;;6.00;5.50;;;19.30;99.90;;;;;;10432197;28;20772;-85
2023/08/05 02:37:20;;;;;;;5.60;5.20;;;19.30;99.90;;;;;;10449741;28;20205;-85
2023/08/05 02:42:23;;;;;;;5.20;4.70;;;19.20;99.90;;;;;;10438091;28;20226;-85
2023/08/05 02:47:25;;;;;;;7.87;5.20;;;19.10;99.90;;;;;;10437772;28;20276;-85
2023/08/05 02:52:27;;;;;;;8.53;5.30;;;19.00;99.90;;;;;;10433631;28;20248;-85
2023/08/05 02:57:31;;;;;;;6.43;5.60;;;19.00;99.90;;;;;;10434441;28;20237;-85
2023/08/05 03:02:33;;;;;;;5.93;5.50;;;18.90;99.90;;;;;;10444238;28;20274;-85
2023/08/05 03:07:35;;;;;;;5.67;5.27;;;18.90;99.90;;;;;;10436725;28;20281;-85
2023/08/05 03:12:38;;;;;;;9.90;5.10;;;18.80;99.90;;;;;;10440490;28;20233;-85
2023/08/05 03:17:40;;;;;;;6.60;5.53;;;18.80;99.90;;;;;;10432895;28;20815;-85
2023/08/05 03:22:43;;;;;;;6.13;5.50;;;18.80;99.90;;;;;;10451223;28;20304;-84
2023/08/05 03:27:47;;;;;;;6.77;6.17;;;18.90;99.90;;;;;;10426201;28;20486;-85
2023/08/05 03:32:50;;;;;;;5.67;5.27;;;18.90;99.90;;;;;;10441520;28;20297;-85
2023/08/05 03:37:53;;;;;;;8.10;6.27;;;18.90;99.90;;;;;;10434032;28;20210;-85
2023/08/05 03:42:57;;;;;;;7.43;6.23;;;18.90;99.90;;;;;;10438217;28;20237;-85
2023/08/05 03:47:59;;;;;;;6.37;5.80;;;19.00;99.90;;;;;;10454665;28;20709;-85
2023/08/05 03:53:02;;;;;;;5.73;5.33;;;19.00;99.90;;;;;;10433387;28;20321;-85
2023/08/05 03:58:07;;;;;;;6.30;5.70;;;19.00;99.90;;;;;;10446757;28;20209;-85
2023/08/05 04:03:09;;;;;;;6.30;5.70;;;19.00;99.90;;;;;;10458722;28;20236;-86
2023/08/05 04:08:13;;;;;;;7.03;6.43;;;19.00;99.90;;;;;;10458835;28;20284;-85
2023/08/05 04:13:17;;;;;;;6.70;6.20;;;18.90;99.90;;;;;;10426713;28;20606;-85
2023/08/05 04:18:20;;;;;;;9.40;7.30;;;18.90;99.90;;;;;;10459615;28;20206;-85
2023/08/05 04:23:24;;;;;;;6.27;5.53;;;18.90;99.90;;;;;;10435628;28;20264;-85
2023/08/05 04:28:27;;;;;;;6.17;5.67;;;18.90;99.90;;;;;;10440084;28;20234;-85
2023/08/05 04:33:31;;;;;;;6.40;5.73;;;18.90;99.90;;;;;;10435885;28;20226;-85
2023/08/05 04:38:33;;;;;;;5.97;5.50;;;18.90;99.90;;;;;;10442666;28;20701;-85
2023/08/05 04:43:37;;;;;;;5.60;5.10;;;18.80;99.90;;;;;;10439050;28;20240;-85
2023/08/05 04:48:39;;;;;;;6.73;6.03;;;18.80;99.90;;;;;;10439907;28;20228;-83
2023/08/05 04:53:41;;;;;;;6.37;5.77;;;18.90;99.90;;;;;;10436834;28;20288;-85
2023/08/05 04:58:44;;;;;;;5.83;5.33;;;18.90;99.90;;;;;;10434455;28;20198;-85
2023/08/05 05:03:48;;;;;;;6.70;6.10;;;18.90;99.90;;;;;;10438511;28;20233;-85
2023/08/05 05:08:50;;;;;;;6.80;6.10;;;19.00;99.90;;;;;;10433924;28;20832;-85
2023/08/05 05:13:56;;;;;;;8.80;5.63;;;19.00;99.90;;;;;;10433586;28;20238;-85
2023/08/05 05:18:58;;;;;;;6.73;5.23;;;18.90;99.90;;;;;;10438745;28;20291;-85
2023/08/05 05:24:00;;;;;;;6.70;6.00;;;18.90;99.90;;;;;;10437638;28;20222;-85
2023/08/05 05:29:03;;;;;;;5.50;5.00;;;19.00;99.90;;;;;;10436136;28;20269;-85
2023/08/05 05:34:05;;;;;;;6.80;6.00;;;19.00;99.90;;;;;;10436037;28;20245;-85
2023/08/05 05:39:08;;;;;;;6.10;5.43;;;19.00;99.90;;;;;;10435466;28;20301;-85
2023/08/05 05:44:11;;;;;;;5.57;5.10;;;19.00;99.90;;;;;;10442284;28;20227;-85
2023/08/05 05:49:14;;;;;;;5.33;4.93;;;19.00;99.90;;;;;;10439426;28;20317;-85
2023/08/05 05:54:16;;;;;;;6.30;5.80;;;19.10;99.90;;;;;;10435614;28;20717;-85
2023/08/05 05:59:20;;;;;;;5.37;4.80;;;19.10;99.90;;;;;;10438895;28;20201;-85
2023/08/05 06:04:24;;;;;;;5.60;4.80;;;19.10;99.90;;;;;;10453579;28;20230;-85
2023/08/05 06:09:27;;;;;;;5.67;5.17;;;19.20;99.90;;;;;;10427453;28;20257;-85
2023/08/05 06:14:31;;;;;;;5.53;5.03;;;19.30;99.90;;;;;;10437560;28;21077;-85
2023/08/05 06:19:33;;;;;;;5.40;4.63;;;19.40;99.90;;;;;;10439433;28;20202;-85
2023/08/05 06:24:35;;;;;;;5.03;4.57;;;19.60;99.90;;;;;;10436922;28;20257;-85
2023/08/05 06:29:38;;;;;;;7.23;4.93;;;19.80;99.90;;;;;;10438910;28;20930;-86
2023/08/05 06:34:40;;;;;;;4.67;4.27;;;20.00;99.90;;;;;;10447841;28;20252;-85
2023/08/05 06:39:42;;;;;;;6.40;4.87;;;20.20;99.90;;;;;;10443899;28;20249;-85
2023/08/05 06:44:47;;;;;;;4.60;4.27;;;20.30;99.90;;;;;;10453269;28;20318;-85
2023/08/05 06:49:49;;;;;;;4.53;4.13;;;20.50;99.90;;;;;;10433293;28;20726;-84
2023/08/05 06:54:52;;;;;;;4.13;3.83;;;20.70;99.90;;;;;;10437140;28;20551;-84
2023/08/05 06:59:55;;;;;;;6.90;3.90;;;20.80;99.90;;;;;;10436274;28;20283;-85
2023/08/05 07:04:57;;;;;;;8.90;3.97;;;21.00;99.90;;;;;;10429853;28;20224;-85
2023/08/05 07:10:02;;;;;;;6.77;4.63;;;21.10;99.90;;;;;;10429857;28;20321;-85
2023/08/05 07:15:06;;;;;;;5.20;3.60;;;21.20;99.90;;;;;;10439761;28;20230;-86
2023/08/05 07:20:09;;;;;;;4.07;3.53;;;21.20;99.90;;;;;;10436803;28;20219;-85
2023/08/05 07:25:11;;;;;;;4.60;4.20;;;21.20;99.90;;;;;;10443141;28;20238;-85
2023/08/05 07:30:15;;;;;;;4.90;4.20;;;21.30;99.90;;;;;;10442300;28;20619;-85
2023/08/05 07:35:17;;;;;;;3.27;3.00;;;21.50;99.90;;;;;;10435139;28;20256;-85
2023/08/05 07:40:19;;;;;;;4.70;3.70;;;21.70;99.90;;;;;;10440876;28;20210;-83
2023/08/05 07:45:23;;;;;;;4.20;3.80;;;21.80;99.10;;;;;;10445109;28;20245;-85
2023/08/05 07:50:25;;;;;;;3.53;3.23;;;21.90;99.20;;;;;;10444424;28;20221;-85
2023/08/05 07:55:32;;;;;;;6.43;3.10;;;21.90;98.90;;;;;;10449267;28;20318;-85
2023/08/05 08:00:35;;;;;;;3.10;2.90;;;21.90;99.40;;;;;;10443334;28;20276;-85
2023/08/05 08:05:37;;;;;;;6.73;3.50;;;22.10;99.50;;;;;;10445154;28;20229;-85
2023/08/05 08:10:39;;;;;;;4.80;3.37;;;22.50;99.30;;;;;;10442985;28;20276;-85
2023/08/05 08:15:44;;;;;;;3.63;3.13;;;22.80;99.00;;;;;;10443572;28;20214;-85
2023/08/05 08:20:50;;;;;;;3.13;2.93;;;23.10;99.00;;;;;;10435820;28;20256;-85
2023/08/05 08:25:52;;;;;;;3.50;3.23;;;23.20;98.70;;;;;;10441120;28;20218;-85
2023/08/05 08:30:56;;;;;;;4.57;3.10;;;23.50;98.50;;;;;;10444490;28;20297;-85
2023/08/05 08:35:58;;;;;;;4.60;3.13;;;23.70;97.90;;;;;;10436576;28;20197;-85
2023/08/05 08:41:02;;;;;;;3.40;3.20;;;23.80;97.20;;;;;;10441932;28;20216;-85
2023/08/05 08:46:07;;;;;;;3.13;2.83;;;24.00;96.90;;;;;;10459707;28;20234;-85
2023/08/05 08:51:10;;;;;;;3.43;3.13;;;24.30;96.90;;;;;;10457808;28;20233;-85
2023/08/05 08:56:12;;;;;;;3.43;3.23;;;24.60;96.90;;;;;;10437493;28;20202;-85
2023/08/05 09:01:17;;;;;;;3.40;3.03;;;25.10;96.10;;;;;;10440216;28;20225;-85
2023/08/05 09:06:23;;;;;;;2.87;2.67;;;25.50;95.60;;;;;;10439970;28;21223;-85
2023/08/05 09:11:25;;;;;;;3.80;3.33;;;25.70;94.60;;;;;;10438489;28;20284;-85
2023/08/05 09:16:29;;;;;;;3.63;3.33;;;25.50;93.70;;;;;;10460579;28;20198;-85
2023/08/05 09:21:31;;;;;;;3.40;2.70;;;25.20;94.10;;;;;;10484881;28;20222;-85
2023/08/05 09:26:35;;;;;;;2.70;2.50;;;24.90;94.70;;;;;;10438968;28;20257;-85
2023/08/05 09:31:40;;;;;;;3.40;2.47;;;24.90;93.90;;;;;;10440882;28;20241;-85
2023/08/05 09:36:42;;;;;;;3.13;2.73;;;25.10;94.40;;;;;;10438275;28;20297;-85
2023/08/05 09:41:51;;;;;;;6.83;3.03;;;25.40;92.10;;;;;;10438013;28;20313;-85
2023/08/05 09:46:59;;;;;;;2.93;2.73;;;25.90;93.20;;;;;;10441428;28;20285;-85
2023/08/05 09:52:03;;;;;;;2.40;2.30;;;26.40;92.50;;;;;;10439404;28;20240;-85
2023/08/05 09:57:08;;;;;;;3.70;3.10;;;26.70;90.50;;;;;;10444690;28;20213;-85
2023/08/05 10:02:13;;;;;;;2.43;2.10;;;26.80;90.30;;;;;;10459552;28;20786;-85
2023/08/05 10:07:15;;;;;;;2.43;2.23;;;26.80;88.80;;;;;;10431298;28;20228;-85
2023/08/05 10:12:20;;;;;;;2.30;2.00;;;26.50;88.20;;;;;;10440100;28;20234;-85
2023/08/05 10:17:25;;;;;;;2.60;2.40;;;26.00;88.10;;;;;;10443936;28;20194;-85
2023/08/05 10:22:27;;;;;;;4.43;2.50;;;25.60;90.00;;;;;;10456049;23;20241;-82
2023/08/05 10:27:37;;;;;;;2.17;2.07;;;25.30;88.30;;;;;;10393306;28;20274;-81
2023/08/05 10:32:55;;;;;;;2.90;2.70;;;25.00;89.70;;;;;;10403259;28;20680;-82
2023/08/05 10:38:21;;;;;;;2.50;2.33;;;24.70;90.30;;;;;;10398089;28;20284;-81
2023/08/05 10:43:30;;;;;;;2.67;2.47;;;24.40;90.30;;;;;;10380769;28;20223;-80
2023/08/05 10:48:36;;;;;;;2.47;2.20;;;24.20;91.50;;;;;;10395283;28;20311;-80
2023/08/05 10:53:39;;;;;;;3.03;2.83;;;24.00;90.90;;;;;;10404234;28;20234;-80
2023/08/05 10:58:47;;;;;;;2.20;2.10;;;23.90;91.60;;;;;;10405702;28;20210;-83
2023/08/05 11:03:56;;;;;;;3.13;2.80;;;23.80;90.50;;;;;;10406923;28;20250;-81
2023/08/05 11:09:01;;;;;;;2.70;2.50;;;23.80;90.30;;;;;;10384131;28;20713;-81
2023/08/05 11:14:04;;;;;;;2.87;2.53;;;23.70;90.20;;;;;;10386025;28;20934;-81
2023/08/05 11:19:08;;;;;;;2.57;2.40;;;23.80;91.30;;;;;;10406402;28;20198;-82
2023/08/05 11:24:17;;;;;;;2.43;2.27;;;23.90;92.10;;;;;;10408437;28;20922;-79
2023/08/05 11:29:20;;;;;;;2.90;2.70;;;24.10;92.70;;;;;;10405869;28;20273;-81
2023/08/05 11:34:24;;;;;;;2.60;2.40;;;24.20;92.00;;;;;;10408425;28;20921;-81
2023/08/05 11:39:27;;;;;;;2.70;2.50;;;24.30;91.80;;;;;;10392308;28;20290;-82
2023/08/05 11:44:29;;;;;;;3.77;2.87;;;24.30;90.60;;;;;;10380769;28;20231;-81
2023/08/05 11:49:32;;;;;;;2.80;2.60;;;24.40;91.30;;;;;;10404865;28;20268;-82
2023/08/05 11:54:34;;;;;;;3.00;2.70;;;24.50;92.10;;;;;;10407340;28;20238;-80
2023/08/05 11:59:37;;;;;;;2.53;2.37;;;24.70;90.40;;;;;;10406659;28;20214;-81
2023/08/05 12:04:45;;;;;;;3.77;2.57;;;24.70;90.70;;;;;;10409071;28;20250;-81
2023/08/05 12:10:04;;;;;;;2.83;2.70;;;24.70;90.80;;;;;;10406654;28;20230;-80
2023/08/05 12:15:11;;;;;;;3.30;3.00;;;24.70;90.90;;;;;;10396015;28;20237;-81
2023/08/05 12:20:17;;;;;;;3.47;3.27;;;24.60;91.00;;;;;;10383357;28;20286;-81
2023/08/05 12:25:19;;;;;;;2.43;2.23;;;24.50;91.40;;;;;;10397145;28;20230;-80
2023/08/05 12:30:21;;;;;;;3.10;2.90;;;24.60;90.40;;;;;;10387912;28;20222;-80
2023/08/05 12:35:25;;;;;;;2.40;2.20;;;24.50;91.10;;;;;;10384873;28;20242;-82
2023/08/05 12:40:27;;;;;;;6.67;3.03;;;24.40;91.40;;;;;;10394442;28;20210;-80
2023/08/05 12:45:29;;;;;;;5.77;2.97;;;24.30;90.00;;;;;;10401039;28;20594;-81
2023/08/05 12:50:33;;;;;;;3.30;3.10;;;24.20;91.10;;;;;;10381962;28;20236;-80
2023/08/05 12:55:35;;;;;;;3.40;3.10;;;24.10;91.90;;;;;;10400449;28;20274;-80
2023/08/05 13:00:37;;;;;;;3.00;2.90;;;24.20;89.80;;;;;;10402136;28;20219;-81
2023/08/05 13:05:40;;;;;;;13.50;3.63;;;24.20;91.10;;;;;;10423648;28;20214;-81
2023/08/05 13:10:44;;;;;;;3.60;3.03;;;24.20;91.40;;;;;;10400845;28;20223;-81
2023/08/05 13:15:46;;;;;;;4.00;3.20;;;24.10;92.00;;;;;;10416140;28;20200;-81
2023/08/05 13:20:50;;;;;;;3.83;3.53;;;24.00;92.80;;;;;;10446767;28;20191;-81
2023/08/05 13:25:52;;;;;;;3.43;3.20;;;23.90;92.20;;;;;;10419490;28;20227;-82
2023/08/05 13:31:01;;;;;;;2.80;2.60;;;23.80;90.60;;;;;;10432772;28;20229;-81
2023/08/05 13:36:04;;;;;;;4.10;2.97;;;23.70;92.80;;;;;;10419436;28;20203;-81
2023/08/05 13:41:06;;;;;;;3.77;2.77;;;23.80;91.60;;;;;;10443689;28;20408;-81
2023/08/05 13:46:08;;;;;;;2.83;2.73;;;23.90;91.30;;;;;;10423589;28;20223;-82
2023/08/05 13:51:12;;;;;;;2.40;2.30;;;24.10;91.10;;;;;;10415720;28;20245;-81
2023/08/05 13:56:14;;;;;;;4.40;2.93;;;24.10;91.40;;;;;;10436043;28;20246;-81
2023/08/05 14:01:16;;;;;;;3.17;2.77;;;24.10;90.50;;;;;;10421087;28;20203;-81
2023/08/05 14:06:19;;;;;;;2.97;2.73;;;24.10;90.70;;;;;;10440060;28;20617;-81
2023/08/05 14:11:22;;;;;;;6.70;3.50;;;24.00;91.90;;;;;;10404781;28;20231;-81
2023/08/05 14:16:24;;;;;;;4.20;2.87;;;24.00;92.00;;;;;;10410171;28;20203;-81
2023/08/05 14:21:27;;;;;;;8.63;3.17;;;24.10;91.30;;;;;;10368137;28;20222;-81
2023/08/05 14:26:29;;;;;;;4.93;3.13;;;24.10;91.50;;;;;;10401394;28;20203;-80
2023/08/05 14:31:32;;;;;;;3.73;3.00;;;24.00;91.30;;;;;;10403274;28;20241;-80
2023/08/05 14:36:35;;;;;;;3.50;3.20;;;23.90;91.50;;;;;;10401604;28;20207;-81
2023/08/05 14:41:38;;;;;;;5.30;3.30;;;23.90;91.50;;;;;;10394226;28;20543;-81
2023/08/05 14:46:41;;;;;;;4.30;2.77;;;23.90;91.10;;;;;;10383230;28;20195;-81
2023/08/05 14:51:44;;;;;;;2.93;2.73;;;23.70;92.10;;;;;;10404276;28;20215;-81
2023/08/05 14:56:46;;;;;;;3.33;3.07;;;23.60;91.60;;;;;;10398943;28;20234;-81
2023/08/05 15:01:48;;;;;;;3.07;2.87;;;23.50;91.60;;;;;;10389723;28;20261;-80
2023/08/05 15:06:52;;;;;;;3.10;3.00;;;23.40;91.90;;;;;;10407086;28;20203;-82
2023/08/05 15:11:54;;;;;;;3.80;3.23;;;23.30;91.00;;;;;;10399598;28;20210;-80
2023/08/05 15:16:56;;;;;;;2.97;2.67;;;23.30;92.40;;;;;;10400642;28;20200;-81
2023/08/05 15:21:59;;;;;;;2.93;2.73;;;23.20;91.20;;;;;;10394916;28;20276;-81
2023/08/05 15:27:03;;;;;;;3.93;3.20;;;23.10;91.60;;;;;;10400670;28;20222;-82
2023/08/05 15:32:06;;;;;;;3.30;3.00;;;23.20;91.50;;;;;;10378376;28;20318;-81
2023/08/05 15:37:10;;;;;;;3.03;2.83;;;23.20;91.60;;;;;;10403570;28;20687;-82
2023/08/05 15:42:12;;;;;;;3.50;3.30;;;23.10;92.60;;;;;;10407272;28;20219;-81
2023/08/05 15:47:14;;;;;;;3.13;2.93;;;23.10;91.20;;;;;;10410176;28;20232;-81
2023/08/05 15:52:17;;;;;;;3.47;3.27;;;23.10;91.30;;;;;;10412227;28;20230;-80
2023/08/05 15:57:19;;;;;;;3.30;3.00;;;23.10;91.20;;;;;;10388685;28;20254;-82
2023/08/05 16:02:21;;;;;;;3.03;2.80;;;23.10;92.20;;;;;;10415187;28;20247;-82
2023/08/05 16:07:25;;;;;;;2.70;2.50;;;23.10;91.90;;;;;;10404701;28;20231;-80
2023/08/05 16:12:27;;;;;;;3.20;2.90;;;23.00;92.40;;;;;;10406445;28;20272;-79
2023/08/05 16:17:32;;;;;;;4.83;2.90;;;23.00;92.70;;;;;;10396168;28;20515;-79
2023/08/05 16:22:35;;;;;;;3.00;2.80;;;23.00;93.30;;;;;;10396765;28;20238;-78
2023/08/05 16:27:40;;;;;;;3.00;2.80;;;22.90;92.40;;;;;;10408604;28;20223;-81
2023/08/05 16:32:42;;;;;;;3.10;2.90;;;22.90;92.40;;;;;;10412906;28;20249;-80
2023/08/05 16:37:45;;;;;;;3.60;3.30;;;22.90;92.80;;;;;;10417982;28;20199;-81
2023/08/05 16:42:48;;;;;;;3.13;2.93;;;22.90;93.30;;;;;;10410679;28;20269;-82
2023/08/05 16:47:50;;;;;;;3.13;2.83;;;22.90;92.70;;;;;;10408331;28;20706;-81
2023/08/05 16:52:53;;;;;;;3.30;3.00;;;22.90;91.60;;;;;;10414854;28;20257;-80
2023/08/05 16:57:55;;;;;;;3.43;3.23;;;22.90;92.90;;;;;;10408460;28;20199;-80
2023/08/05 17:02:58;;;;;;;3.50;2.80;;;22.90;93.80;;;;;;10412270;28;20306;-80
2023/08/05 17:08:01;;;;;;;3.70;3.40;;;22.80;93.20;;;;;;10409915;28;20222;-81
2023/08/05 17:13:03;;;;;;;3.13;2.90;;;22.80;94.10;;;;;;10406349;28;20239;-82
2023/08/05 17:18:05;;;;;;;3.50;3.27;;;22.80;92.50;;;;;;10403710;28;20634;-81
2023/08/05 17:23:09;;;;;;;3.70;3.33;;;22.80;93.00;;;;;;10405191;28;20219;-81
2023/08/05 17:28:12;;;;;;;3.80;3.50;;;22.80;94.20;;;;;;10401527;28;20361;-81
2023/08/05 17:33:14;;;;;;;5.00;4.60;;;22.80;93.40;;;;;;10423752;28;20244;-80
2023/08/05 17:38:17;;;;;;;8.83;7.93;;;22.80;95.50;;;;;;10386847;28;20671;-81
2023/08/05 17:43:19;;;;;;;5.53;5.03;;;22.70;94.30;;;;;;10408312;28;20214;-81
2023/08/05 17:48:21;;;;;;;3.97;3.20;;;22.70;96.40;;;;;;10408810;28;20223;-80
2023/08/05 17:53:25;;;;;;;3.97;3.67;;;22.60;95.30;;;;;;10399812;28;20730;-80
2023/08/05 17:58:27;;;;;;;3.33;3.13;;;22.50;95.60;;;;;;10408136;28;20196;-81
2023/08/05 18:03:29;;;;;;;5.73;3.57;;;22.40;95.20;;;;;;10407979;28;20210;-81
2023/08/05 18:08:32;;;;;;;4.40;3.43;;;22.40;95.80;;;;;;10407731;28;20223;-81
2023/08/05 18:13:35;;;;;;;4.60;3.90;;;22.30;96.10;;;;;;10412088;28;20218;-81
2023/08/05 18:18:37;;;;;;;3.60;3.30;;;22.30;96.90;;;;;;10406677;28;20195;-81
2023/08/05 18:23:42;;;;;;;4.10;3.80;;;22.10;96.60;;;;;;10410504;28;20664;-81
2023/08/05 18:28:44;;;;;;;3.63;3.43;;;21.90;98.30;;;;;;10415255;28;20229;-81
2023/08/05 18:33:46;;;;;;;4.43;3.83;;;21.70;98.90;;;;;;10386706;28;20222;-81
2023/08/05 18:38:49;;;;;;;4.60;4.20;;;21.40;99.70;;;;;;10419141;28;20202;-82
2023/08/05 18:43:51;;;;;;;4.30;4.00;;;21.30;99.80;;;;;;10408610;28;20837;-81
2023/08/05 18:48:54;;;;;;;4.70;4.30;;;21.10;99.90;;;;;;10424295;28;20219;-81
2023/08/05 18:53:57;;;;;;;3.80;3.50;;;21.00;99.90;;;;;;10383014;28;20222;-80
2023/08/05 18:58:59;;;;;;;4.37;4.07;;;20.90;99.90;;;;;;10411999;28;20231;-80
2023/08/05 19:04:02;;;;;;;6.57;5.83;;;20.90;99.90;;;;;;10413608;28;20223;-81
2023/08/05 19:09:06;;;;;;;6.83;6.23;;;20.70;99.90;;;;;;10399599;28;20317;-80
2023/08/05 19:14:08;;;;;;;5.90;5.37;;;20.50;99.90;;;;;;10391623;28;20217;-81
2023/08/05 19:19:10;;;;;;;6.53;6.00;;;20.10;99.90;;;;;;10403716;28;20199;-79
2023/08/05 19:24:14;;;;;;;7.17;6.63;;;19.80;99.90;;;;;;10419016;28;20234;-80
2023/08/05 19:29:16;;;;;;;7.63;7.13;;;19.50;99.90;;;;;;10413772;28;20439;-83
2023/08/05 19:34:18;;;;;;;7.60;7.10;;;19.40;99.90;;;;;;10408080;28;20257;-82
2023/08/05 19:39:21;;;;;;;7.90;7.30;;;19.20;99.90;;;;;;10391435;28;20687;-82
2023/08/05 19:44:25;;;;;;;8.87;8.20;;;19.10;99.90;;;;;;10406948;28;20233;-82
2023/08/05 19:49:27;;;;;;;8.20;7.60;;;19.00;99.90;;;;;;10409748;28;20321;-82
2023/08/05 19:54:31;;;;;;;7.17;6.60;;;19.00;99.90;;;;;;10406891;28;20223;-82
2023/08/05 19:59:33;;;;;;;6.90;6.30;;;18.90;99.90;;;;;;10400170;28;20211;-81
2023/08/05 20:04:35;;;;;;;6.33;5.93;;;18.90;99.90;;;;;;10408631;28;20219;-81
2023/08/05 20:09:38;;;;;;;7.90;7.30;;;18.70;99.90;;;;;;10423581;28;20245;-82
2023/08/05 20:14:40;;;;;;;7.93;7.40;;;18.80;99.90;;;;;;10387573;28;20223;-82
2023/08/05 20:19:43;;;;;;;7.43;6.80;;;18.70;99.90;;;;;;10405589;28;20207;-81
2023/08/05 20:24:46;;;;;;;7.17;6.67;;;18.60;99.90;;;;;;10410672;28;20250;-81
2023/08/05 20:29:48;;;;;;;6.67;6.17;;;18.70;99.90;;;;;;10388051;28;20223;-81
2023/08/05 20:34:50;;;;;;;6.63;6.13;;;18.60;99.90;;;;;;10409597;28;20230;-82
2023/08/05 20:39:54;;;;;;;5.63;5.33;;;18.50;99.90;;;;;;10394974;28;20210;-82
2023/08/05 20:44:56;;;;;;;6.13;5.73;;;18.50;99.90;;;;;;10390054;28;20736;-82
2023/08/05 20:49:58;;;;;;;6.60;6.20;;;18.50;99.90;;;;;;10394186;28;20249;-81
2023/08/05 20:55:02;;;;;;;6.93;6.50;;;18.50;99.90;;;;;;10406059;28;20872;-82
2023/08/05 21:00:04;;;;;;;6.73;6.23;;;18.60;99.90;;;;;;10392316;28;20229;-81
2023/08/05 21:05:07;;;;;;;7.00;6.40;;;18.70;99.90;;;;;;10404198;28;20223;-81
2023/08/05 21:10:11;;;;;;;7.70;7.00;;;18.80;99.90;;;;;;10416627;28;20233;-81
2023/08/05 21:15:13;;;;;;;6.90;6.43;;;18.90;99.90;;;;;;10425356;28;20219;-81
2023/08/05 21:20:15;;;;;;;6.93;6.33;;;19.00;99.90;;;;;;10410022;28;20207;-81
2023/08/05 21:25:18;;;;;;;5.90;5.50;;;18.90;99.90;;;;;;10407969;28;20710;-81
2023/08/05 21:30:20;;;;;;;8.23;7.53;;;18.80;99.90;;;;;;10409763;28;20241;-81
2023/08/05 21:35:23;;;;;;;7.53;7.03;;;18.60;99.90;;;;;;10391707;28;20246;-82
2023/08/05 21:40:26;;;;;;;7.83;7.23;;;18.50;99.90;;;;;;10407199;28;20245;-81
2023/08/05 21:45:28;;;;;;;8.20;7.60;;;18.40;99.90;;;;;;10410182;28;20218;-82
2023/08/05 21:50:31;;;;;;;7.53;7.03;;;18.30;99.90;;;;;;10409264;28;20249;-82
2023/08/05 21:55:34;;;;;;;8.73;7.93;;;18.30;99.90;;;;;;10410502;28;20249;-82
2023/08/05 22:00:37;;;;;;;9.37;8.67;;;18.30;99.90;;;;;;10392949;28;20206;-82
2023/08/05 22:05:39;;;;;;;7.80;6.93;;;18.40;99.90;;;;;;10414999;28;20218;-82
2023/08/05 22:10:43;;;;;;;6.57;6.17;;;18.40;99.90;;;;;;10409723;28;20589;-81
2023/08/05 22:15:50;;;;;;;6.10;5.60;;;18.40;99.90;;;;;;10405974;28;20219;-82
2023/08/05 22:20:53;;;;;;;5.80;5.40;;;18.40;99.90;;;;;;10388952;28;20195;-82
2023/08/05 22:25:56;;;;;;;6.60;6.20;;;18.50;99.90;;;;;;10411017;28;20226;-81
2023/08/05 22:30:58;;;;;;;7.10;6.10;;;18.50;99.90;;;;;;10522064;22;20235;-85
2023/08/05 22:36:08;;;;;;;6.50;6.10;;;18.50;99.90;;;;;;10539964;28;20212;-85
2023/08/05 22:41:11;;;;;;;6.57;5.97;;;18.50;99.90;;;;;;10538892;28;20736;-85
2023/08/05 22:46:13;;;;;;;6.33;5.83;;;18.50;99.90;;;;;;10510649;28;20250;-85
2023/08/05 22:51:16;;;;;;;7.23;6.63;;;18.50;99.90;;;;;;10535200;28;20216;-86
2023/08/05 22:56:19;;;;;;;7.27;6.33;;;18.60;99.90;;;;;;10535929;28;20205;-85
2023/08/05 23:01:22;;;;;;;6.27;5.60;;;18.60;99.90;;;;;;10537757;28;20301;-86
2023/08/05 23:06:24;;;;;;;6.07;5.57;;;18.60;99.90;;;;;;10533368;28;20211;-85
2023/08/05 23:11:27;;;;;;;6.63;5.60;;;18.70;99.90;;;;;;10534613;28;20220;-85
2023/08/05 23:16:29;;;;;;;6.53;6.13;;;18.80;99.90;;;;;;10516160;28;20320;-86
2023/08/05 23:21:31;;;;;;;7.53;6.83;;;18.80;99.90;;;;;;10535481;28;20281;-85
2023/08/05 23:26:36;;;;;;;7.53;7.00;;;18.80;99.90;;;;;;10536682;28;20788;-85
2023/08/05 23:31:39;;;;;;;7.30;6.60;;;18.80;99.90;;;;;;10524301;28;20607;-85
2023/08/05 23:36:41;;;;;;;6.83;6.23;;;18.80;99.90;;;;;;10502741;28;20228;-86
2023/08/05 23:41:44;;;;;;;6.20;5.60;;;18.70;99.90;;;;;;10550212;28;20213;-86
2023/08/05 23:46:46;;;;;;;6.20;5.70;;;18.70;99.90;;;;;;10541264;28;20201;-86
2023/08/05 23:51:48;;;;;;;6.87;5.80;;;18.70;99.90;;;;;;10534816;28;20312;-85
2023/08/05 23:56:52;;;;;;;6.10;5.60;;;18.70;99.90;;;;;;10514170;28;20205;-84
